Time;durP1;ratioP1;P1;durP2;ratioP2;P2;SDS_P1;SDS_P2;PMS_P1;PMS_P2;Temp;Humidity;BMP_temperature;BMP_pressure;BME280_temperature;BME280_humidity;BME280_pressure;Samples;Min_cycle;Max_cycle;Signal;HPM_P1;HPM_P2
2022/01/03 00:00:53;;;;;;;23.05;11.70;;;;;;;7.11;79.08;96849.25;5116219;28;20019;-62
2022/01/03 00:03:19;;;;;;;21.55;12.02;;;;;;;7.10;78.82;96850.16;5116212;28;20507;-67
2022/01/03 00:05:45;;;;;;;32.70;14.23;;;;;;;7.12;79.29;96849.22;5115923;27;20045;-64
2022/01/03 00:08:11;;;;;;;32.97;14.68;;;;;;;7.06;79.60;96839.78;5115954;27;20032;-64
2022/01/03 00:10:37;;;;;;;34.15;15.52;;;;;;;7.03;80.01;96845.06;5115898;28;20032;-64
2022/01/03 00:13:04;;;;;;;38.22;17.92;;;;;;;7.01;80.13;96838.19;5115823;28;20092;-65
2022/01/03 00:15:31;;;;;;;39.58;15.88;;;;;;;7.03;80.30;96834.66;5115798;28;20016;-68
2022/01/03 00:17:57;;;;;;;57.70;19.33;;;;;;;6.98;80.35;96833.03;5115594;28;20081;-66
2022/01/03 00:20:25;;;;;;;47.75;18.13;;;;;;;6.93;80.47;96831.34;5115883;28;20027;-67
2022/01/03 00:23:04;;;;;;;48.50;19.40;;;;;;;6.94;80.78;96827.88;5115751;28;20047;-65
2022/01/03 00:25:32;;;;;;;49.60;20.70;;;;;;;6.95;80.79;96826.97;5115420;28;20050;-66
2022/01/03 00:28:21;;;;;;;325.02;28.15;;;;;;;6.95;81.27;96818.31;5115518;28;20024;-66
2022/01/03 00:30:55;;;;;;;451.52;29.77;;;;;;;6.98;81.52;96818.25;5115511;28;20020;-66
2022/01/03 00:33:22;;;;;;;65.22;19.98;;;;;;;6.97;81.68;96813.94;5115643;28;20049;-63
2022/01/03 00:35:55;;;;;;;92.35;22.23;;;;;;;6.92;81.69;96819.25;5115286;28;20366;-62
2022/01/03 00:38:22;;;;;;;62.88;21.05;;;;;;;6.87;82.16;96823.69;5115415;27;20028;-67
2022/01/03 00:40:49;;;;;;;64.80;19.38;;;;;;;6.88;81.99;96825.38;5115359;28;20032;-63
2022/01/03 00:43:18;;;;;;;63.33;20.23;;;;;;;6.90;82.30;96830.56;5115218;28;20046;-66
2022/01/03 00:45:44;;;;;;;80.03;20.63;;;;;;;6.92;82.01;96826.19;5115160;28;20054;-65
2022/01/03 00:48:11;;;;;;;342.98;23.63;;;;;;;6.92;82.25;96814.03;5115095;28;20055;-64
2022/01/03 00:50:38;;;;;;;71.25;18.42;;;;;;;6.94;82.19;96804.47;5115080;28;20381;-66
2022/01/03 00:53:04;;;;;;;188.70;20.73;;;;;;;6.98;82.32;96804.41;5115117;28;20103;-66
2022/01/03 00:55:29;;;;;;;260.10;21.80;;;;;;;6.99;82.30;96807.00;5115031;28;20059;-67
2022/01/03 00:58:11;;;;;;;59.70;16.63;;;;;;;6.93;82.33;96800.13;5115063;28;20028;-67
2022/01/03 01:00:40;;;;;;;58.75;16.23;;;;;;;6.92;82.35;96794.97;5114963;28;20032;-66
2022/01/03 01:03:15;;;;;;;73.68;17.23;;;;;;;6.80;82.19;96789.13;5114840;28;20408;-65
2022/01/03 01:05:43;;;;;;;53.60;17.55;;;;;;;6.85;82.33;96791.63;5114722;28;20032;-64
2022/01/03 01:08:09;;;;;;;38.20;16.83;;;;;;;6.88;82.53;96801.13;5114616;28;20039;-64
2022/01/03 01:10:38;;;;;;;43.20;17.48;;;;;;;6.85;82.60;96801.16;5114691;28;20020;-65
2022/01/03 01:13:06;;;;;;;84.68;17.25;;;;;;;6.87;82.62;96796.81;5114732;28;20023;-67
2022/01/03 01:15:34;;;;;;;60.85;16.98;;;;;;;6.89;82.43;96795.88;5114582;28;20016;-66
2022/01/03 01:18:03;;;;;;;57.08;16.70;;;;;;;6.88;82.74;96788.13;5114346;28;20028;-64
2022/01/03 01:20:30;;;;;;;119.82;18.45;;;;;;;6.85;82.42;96773.44;5114468;28;20027;-67
2022/01/03 01:22:56;;;;;;;572.75;34.88;;;;;;;6.85;82.40;96770.84;5114494;28;20026;-68
2022/01/03 01:27:47;;;;;;;205.35;18.55;;;;;;;6.81;82.60;96757.03;5113056;28;20032;-68
2022/01/03 01:28:13;;;;;;;163.63;15.98;;;;;;;6.71;82.18;96750.28;5114305;28;20035;-65
2022/01/03 01:30:39;;;;;;;55.08;15.68;;;;;;;6.70;82.67;96746.84;5114208;28;20047;-65
2022/01/03 01:33:14;;;;;;;78.00;14.55;;;;;;;6.70;82.62;96735.59;5114349;28;20078;-67
2022/01/03 01:35:53;;;;;;;218.25;18.30;;;;;;;6.68;82.28;96717.41;5114252;28;20463;-65
2022/01/03 01:38:28;;;;;;;200.82;16.35;;;;;;;6.67;82.16;96717.44;5114143;28;20059;-64
2022/01/03 01:40:57;;;;;;;91.47;12.90;;;;;;;6.61;82.05;96730.56;5114234;28;20351;-64
2022/01/03 01:43:39;;;;;;;50.63;11.65;;;;;;;6.55;81.94;96729.78;5114032;28;20024;-65
2022/01/03 01:46:08;;;;;;;66.93;13.00;;;;;;;6.49;82.43;96718.66;5113839;28;20362;-64
2022/01/03 01:48:36;;;;;;;85.83;13.13;;;;;;;6.42;82.81;96721.34;5113858;28;20114;-62
2022/01/03 01:51:03;;;;;;;66.63;13.23;;;;;;;6.40;82.98;96707.56;5114061;28;20081;-69
2022/01/03 01:53:29;;;;;;;56.60;13.85;;;;;;;6.43;83.04;96704.91;5114015;28;20028;-67
2022/01/03 01:55:57;;;;;;;68.22;15.00;;;;;;;6.41;83.04;96696.25;5113884;28;20124;-65
2022/01/03 01:58:34;;;;;;;156.60;17.23;;;;;;;6.45;83.08;96690.09;5113679;28;20485;-65
2022/01/03 02:01:07;;;;;;;84.75;14.60;;;;;;;6.49;82.90;96680.53;5114028;28;20028;-68
2022/01/03 02:03:51;;;;;;;55.60;13.68;;;;;;;6.52;82.72;96685.66;5113972;28;20050;-64
2022/01/03 02:06:34;;;;;;;96.18;14.18;;;;;;;6.54;82.53;96678.69;5113769;28;20023;-67
2022/01/03 02:09:08;;;;;;;44.08;13.38;;;;;;;6.53;82.93;96684.78;5113943;28;20028;-66
2022/01/03 02:11:45;;;;;;;50.67;16.27;;;;;;;6.57;82.94;96688.19;5113698;28;20065;-64
2022/01/03 02:14:11;;;;;;;64.82;15.77;;;;;;;6.59;82.96;96695.94;5113722;28;20110;-66
2022/01/03 02:16:38;;;;;;;81.07;16.92;;;;;;;6.57;82.97;96690.78;5113584;28;20102;-64
2022/01/03 02:19:03;;;;;;;36.92;12.77;;;;;;;6.41;82.85;96677.22;5113505;28;20496;-66
2022/01/03 02:21:29;;;;;;;35.53;12.57;;;;;;;6.35;83.01;96656.56;5113585;28;20106;-65
2022/01/03 02:23:54;;;;;;;34.05;12.20;;;;;;;6.36;82.76;96646.13;5113747;28;20101;-65
2022/01/03 02:26:20;;;;;;;33.70;11.85;;;;;;;6.35;82.88;96653.97;5113464;28;20127;-65
2022/01/03 02:28:46;;;;;;;53.85;12.50;;;;;;;6.29;82.94;96649.75;5113460;28;20093;-66
2022/01/03 02:31:11;;;;;;;70.80;12.30;;;;;;;6.35;82.63;96649.59;5113615;28;20051;-65
2022/01/03 02:33:38;;;;;;;93.20;13.05;;;;;;;6.30;83.02;96641.88;5113434;28;20027;-64
2022/01/03 02:36:04;;;;;;;37.05;12.25;;;;;;;6.29;82.84;96640.19;5113606;28;20020;-67
2022/01/03 02:38:30;;;;;;;43.42;13.40;;;;;;;6.32;82.87;96645.31;5113275;28;20493;-68
2022/01/03 02:40:55;;;;;;;83.85;12.85;;;;;;;6.35;82.80;96635.75;5113404;28;20028;-63
2022/01/03 02:43:23;;;;;;;39.28;12.07;;;;;;;6.36;82.45;96635.75;5113322;28;20031;-66
2022/01/03 02:45:48;;;;;;;48.55;12.15;;;;;;;6.34;82.47;96642.69;5113335;28;20027;-65
2022/01/03 02:48:14;;;;;;;119.60;12.85;;;;;;;6.34;82.67;96654.81;5113324;28;20106;-66
2022/01/03 02:50:39;;;;;;;91.70;11.93;;;;;;;6.32;82.25;96652.25;5113239;28;20482;-64
2022/01/03 02:53:05;;;;;;;425.92;23.73;;;;;;;6.27;82.02;96639.38;5113442;28;20132;-69
2022/01/03 02:55:31;;;;;;;43.70;11.80;;;;;;;6.12;82.29;96640.53;5113435;28;20046;-64
2022/01/03 02:58:05;;;;;;;22.98;11.73;;;;;;;6.09;82.74;96648.38;5113207;28;20020;-64
2022/01/03 03:00:33;;;;;;;124.10;13.13;;;;;;;6.05;82.67;96633.72;5116991;28;20049;-65
2022/01/03 03:02:59;;;;;;;37.72;11.68;;;;;;;6.05;82.77;96631.97;5117185;28;20031;-66
2022/01/03 03:05:24;;;;;;;56.10;10.93;;;;;;;5.92;82.76;96607.06;5117275;28;20359;-66
2022/01/03 03:07:53;;;;;;;62.60;10.77;;;;;;;5.99;82.83;96621.66;5117081;28;20031;-67
2022/01/03 03:10:20;;;;;;;66.80;12.63;;;;;;;5.93;82.92;96621.78;5116959;28;20038;-67
2022/01/03 03:12:47;;;;;;;98.38;12.25;;;;;;;5.90;83.08;96625.28;5117014;28;20499;-69
2022/01/03 03:15:14;;;;;;;45.88;12.07;;;;;;;5.80;83.18;96619.41;5117081;28;20035;-66
2022/01/03 03:17:41;;;;;;;51.17;11.48;;;;;;;5.71;83.50;96624.75;5116986;28;20028;-65
2022/01/03 03:20:22;;;;;;;56.10;11.70;;;;;;;5.70;83.61;96617.84;5116954;28;20481;-65
2022/01/03 03:22:50;;;;;;;44.53;9.63;;;;;;;5.59;83.69;96619.75;5116792;28;20035;-64
2022/01/03 03:25:24;;;;;;;43.83;10.25;;;;;;;5.47;83.86;96623.41;5116550;28;20036;-67
2022/01/03 03:27:53;;;;;;;25.20;10.32;;;;;;;5.46;84.27;96626.91;5116961;28;20020;-66
2022/01/03 03:30:27;;;;;;;59.63;10.93;;;;;;;5.48;84.05;96617.38;5116726;27;20361;-68
2022/01/03 03:32:59;;;;;;;49.45;11.60;;;;;;;5.53;84.44;96616.41;5116626;28;20374;-67
2022/01/03 03:35:24;;;;;;;58.22;11.38;;;;;;;5.55;84.45;96604.25;5116831;28;20069;-65
2022/01/03 03:37:50;;;;;;;84.97;10.50;;;;;;;5.59;84.20;96602.47;5116627;28;20031;-64
2022/01/03 03:40:16;;;;;;;106.70;13.60;;;;;;;5.60;83.96;96605.91;5116489;28;20103;-67
2022/01/03 03:42:43;;;;;;;219.38;15.32;;;;;;;5.62;83.63;96607.59;5116561;28;20020;-65
2022/01/03 03:45:09;;;;;;;72.18;11.98;;;;;;;5.63;83.18;96608.47;5116375;28;20041;-69
2022/01/03 03:47:35;;;;;;;44.97;11.75;;;;;;;5.63;83.41;96613.66;5116347;28;20470;-66
2022/01/03 03:50:01;;;;;;;30.85;11.02;;;;;;;5.66;83.59;96618.78;5116352;28;20065;-65
2022/01/03 03:52:26;;;;;;;41.80;11.23;;;;;;;5.68;83.51;96614.41;5116268;28;20023;-64
2022/01/03 03:54:52;;;;;;;126.03;11.73;;;;;;;5.65;83.45;96607.53;5116307;28;20050;-65
2022/01/03 03:57:17;;;;;;;103.78;10.88;;;;;;;5.61;83.17;96605.91;5116059;28;20028;-70
2022/01/03 03:59:43;;;;;;;74.00;10.13;;;;;;;5.62;82.94;96601.53;5116102;28;20027;-65
2022/01/03 04:02:09;;;;;;;60.03;9.65;;;;;;;5.57;82.98;96599.88;5116033;27;20389;-68
2022/01/03 04:04:35;;;;;;;41.92;9.27;;;;;;;5.56;82.88;96602.50;5116108;28;20035;-66
2022/01/03 04:07:00;;;;;;;70.68;10.20;;;;;;;5.55;82.54;96595.63;5116030;28;20028;-69
2022/01/03 04:09:26;;;;;;;364.33;21.58;;;;;;;5.57;82.72;96597.28;5115517;28;20024;-65
2022/01/03 04:11:52;;;;;;;103.40;10.38;;;;;;;5.56;82.25;96599.91;5115867;28;20028;-68
2022/01/03 04:14:17;;;;;;;66.93;9.45;;;;;;;5.50;81.94;96590.50;5115855;27;20068;-64
2022/01/03 04:16:43;;;;;;;110.18;10.35;;;;;;;5.44;82.05;96580.22;5115919;28;20012;-67
2022/01/03 04:19:09;;;;;;;31.73;8.52;;;;;;;5.36;82.06;96572.56;5115665;28;20031;-66
2022/01/03 04:21:37;;;;;;;74.25;9.88;;;;;;;5.36;82.41;96563.94;5115623;27;20030;-65
2022/01/03 04:24:04;;;;;;;90.85;10.35;;;;;;;5.38;82.51;96570.81;5115621;28;20027;-65
2022/01/03 04:26:29;;;;;;;79.72;11.10;;;;;;;5.26;82.94;96571.88;5115406;28;20048;-64
2022/01/03 04:28:55;;;;;;;186.07;14.18;;;;;;;5.31;83.22;96566.59;5115620;28;20026;-65
2022/01/03 04:31:21;;;;;;;115.45;14.50;;;;;;;5.30;83.11;96559.72;5115574;28;20026;-65
2022/01/03 04:33:46;;;;;;;87.82;11.50;;;;;;;5.15;83.45;96556.47;5115500;28;20020;-65
2022/01/03 04:36:12;;;;;;;45.80;10.40;;;;;;;5.16;83.85;96557.34;5115444;28;20105;-65
2022/01/03 04:38:38;;;;;;;65.75;10.95;;;;;;;5.18;83.81;96565.97;5115292;28;20023;-65
2022/01/03 04:41:03;;;;;;;53.08;9.88;;;;;;;5.13;83.49;96562.56;5114121;28;20081;-65
2022/01/03 04:43:30;;;;;;;65.88;10.32;;;;;;;5.09;83.34;96561.75;5115365;28;20015;-66
2022/01/03 04:45:56;;;;;;;61.42;8.90;;;;;;;5.12;82.97;96569.47;5115220;28;20035;-68
2022/01/03 04:48:22;;;;;;;44.88;8.90;;;;;;;4.92;83.16;96569.78;5115081;28;20016;-63
2022/01/03 04:50:49;;;;;;;65.63;9.18;;;;;;;4.92;83.31;96567.22;5115115;28;20030;-70
2022/01/03 04:53:15;;;;;;;91.57;10.20;;;;;;;4.92;83.68;96564.63;5115204;27;20058;-67
2022/01/03 04:55:40;;;;;;;136.77;11.68;;;;;;;4.96;83.81;96561.09;5115173;28;20072;-64
2022/01/03 04:58:06;;;;;;;144.70;11.73;;;;;;;5.06;83.65;96565.25;5114812;28;20020;-65
2022/01/03 05:00:32;;;;;;;250.27;13.52;;;;;;;5.07;83.68;96560.94;5115027;27;20084;-67
2022/01/03 05:02:58;;;;;;;263.58;16.17;;;;;;;5.03;83.16;96561.88;5114823;28;20032;-65
2022/01/03 05:05:24;;;;;;;269.25;13.63;;;;;;;4.97;83.35;96554.19;5114793;28;20032;-66
2022/01/03 05:07:49;;;;;;;223.05;13.38;;;;;;;4.95;82.96;96554.19;5114902;28;20020;-65
2022/01/03 05:10:15;;;;;;;285.73;13.38;;;;;;;4.85;83.09;96544.84;5114702;28;20358;-68
2022/01/03 05:12:40;;;;;;;152.93;9.85;;;;;;;4.80;83.35;96543.19;5114796;28;20046;-66
2022/01/03 05:15:07;;;;;;;191.25;11.25;;;;;;;4.81;83.42;96544.03;5114705;28;20149;-62
2022/01/03 05:17:32;;;;;;;169.98;10.13;;;;;;;4.80;83.87;96550.09;5114520;28;20062;-65
2022/01/03 05:19:58;;;;;;;108.18;10.63;;;;;;;4.76;83.72;96549.28;5114535;28;20073;-65
2022/01/03 05:22:24;;;;;;;265.05;14.82;;;;;;;4.72;84.10;96539.84;5113658;28;20536;-67
2022/01/03 05:24:50;;;;;;;145.85;9.48;;;;;;;4.67;83.97;96550.25;5114309;28;20497;-65
2022/01/03 05:27:15;;;;;;;150.60;8.93;;;;;;;4.58;83.70;96553.00;5114368;28;20019;-64
2022/01/03 05:29:41;;;;;;;106.38;8.98;;;;;;;4.46;83.48;96545.41;5114420;28;20019;-64
2022/01/03 05:32:07;;;;;;;115.40;8.38;;;;;;;4.48;83.55;96559.19;5114365;28;20500;-68
2022/01/03 05:34:33;;;;;;;103.20;7.10;;;;;;;4.42;82.90;96558.38;5114477;28;20023;-67
2022/01/03 05:36:58;;;;;;;98.07;7.20;;;;;;;4.34;83.02;96557.66;5114207;28;20073;-65
2022/01/03 05:39:24;;;;;;;40.85;7.18;;;;;;;4.29;83.46;96551.66;5114105;28;20106;-67
2022/01/03 05:41:49;;;;;;;64.10;7.80;;;;;;;4.27;83.63;96555.97;5114288;28;20023;-66
2022/01/03 05:44:15;;;;;;;67.38;7.10;;;;;;;4.24;83.57;96556.06;5114268;28;20485;-66
2022/01/03 05:46:40;;;;;;;14.38;6.43;;;;;;;4.18;83.60;96551.78;5114020;28;20020;-64
2022/01/03 05:49:08;;;;;;;33.65;7.53;;;;;;;4.21;83.57;96549.16;5114057;28;20030;-65
2022/01/03 05:51:33;;;;;;;79.43;11.32;;;;;;;4.20;83.62;96547.44;5113947;28;20370;-66
2022/01/03 05:53:59;;;;;;;78.10;16.60;;;;;;;4.24;83.62;96546.53;5113996;28;20073;-62
2022/01/03 05:56:25;;;;;;;131.80;19.10;;;;;;;4.25;83.82;96537.88;5114110;28;20019;-64
2022/01/03 05:58:51;;;;;;;160.27;25.52;;;;;;;4.25;83.72;96532.69;5113935;28;20027;-67
2022/01/03 06:01:19;;;;;;;146.15;8.90;;;;;;;4.30;83.07;96530.91;5113781;28;20030;-65
2022/01/03 06:03:45;;;;;;;89.63;6.85;;;;;;;4.28;82.17;96521.47;5113754;28;20020;-65
2022/01/03 06:08:41;;;;;;;113.53;6.65;;;;;;;4.23;82.09;96513.75;5113866;28;20508;-63
2022/01/03 06:11:07;;;;;;;38.47;4.38;;;;;;;4.21;82.03;96506.88;5113613;28;20031;-66
2022/01/03 06:13:32;;;;;;;29.80;5.10;;;;;;;4.06;81.32;96508.78;5113681;28;20016;-68
2022/01/03 06:15:58;;;;;;;34.67;6.22;;;;;;;3.98;82.31;96515.78;5113671;28;20385;-62
2022/01/03 06:18:24;;;;;;;6.03;4.60;;;;;;;3.82;80.67;96521.13;5113554;28;20113;-66
2022/01/03 06:20:51;;;;;;;4.32;3.92;;;;;;;3.80;80.31;96525.50;5113617;28;20454;-64
2022/01/03 06:23:19;;;;;;;4.55;3.53;;;;;;;3.83;80.13;96517.69;5113588;28;20028;-63
2022/01/03 06:25:45;;;;;;;3.70;3.20;;;;;;;3.82;80.78;96513.38;5113291;28;20059;-63
2022/01/03 06:28:12;;;;;;;4.20;3.80;;;;;;;3.95;80.82;96503.75;5113518;28;20020;-64
2022/01/03 06:30:39;;;;;;;3.85;3.55;;;;;;;4.07;81.39;96505.31;5113511;28;20481;-64
2022/01/03 06:33:07;;;;;;;7.05;4.45;;;;;;;4.32;81.50;96514.47;5114875;28;20019;-64
2022/01/03 06:35:33;;;;;;;3.83;3.42;;;;;;;4.46;80.39;96516.91;5117837;28;20019;-67
2022/01/03 06:37:59;;;;;;;3.10;2.80;;;;;;;4.46;80.81;96512.59;5117834;28;20035;-68
2022/01/03 06:40:25;;;;;;;7.30;3.83;;;;;;;4.55;81.13;96517.63;5117953;28;20530;-66
2022/01/03 06:42:52;;;;;;;15.73;5.20;;;;;;;4.72;80.77;96515.69;5117723;28;20020;-66
2022/01/03 06:45:17;;;;;;;97.80;6.90;;;;;;;4.75;80.60;96524.25;5117797;28;20020;-64
2022/01/03 06:47:43;;;;;;;30.55;4.68;;;;;;;4.80;80.31;96513.81;5117512;28;20020;-68
2022/01/03 06:50:10;;;;;;;21.50;4.63;;;;;;;4.87;79.51;96518.00;5117412;28;20062;-64
2022/01/03 06:52:36;;;;;;;4.43;4.00;;;;;;;4.97;79.75;96526.50;5117381;28;20023;-65
2022/01/03 06:55:03;;;;;;;4.07;3.67;;;;;;;5.01;79.01;96524.72;5117471;28;20040;-67
2022/01/03 06:57:29;;;;;;;7.45;3.90;;;;;;;4.98;79.13;96506.63;5117400;28;20031;-66
2022/01/03 06:59:55;;;;;;;12.00;4.15;;;;;;;5.04;79.51;96519.50;5117212;28;20023;-65
2022/01/03 07:02:21;;;;;;;13.20;3.65;;;;;;;5.12;79.32;96522.78;5117169;28;20019;-65
2022/01/03 07:04:47;;;;;;;4.65;3.25;;;;;;;5.25;79.30;96532.97;5117240;28;20027;-66
2022/01/03 07:07:13;;;;;;;4.05;3.65;;;;;;;5.37;78.75;96531.91;5117159;28;20042;-66
2022/01/03 07:09:39;;;;;;;3.40;3.10;;;;;;;5.42;78.55;96535.31;5117166;28;20015;-68
2022/01/03 07:12:08;;;;;;;4.00;3.60;;;;;;;5.49;78.19;96528.25;5117190;28;20077;-68
2022/01/03 07:19:58;;;;;;;5.78;3.28;;;;;;;7.31;74.91;96534.81;5117025;28;20384;-66
2022/01/03 07:22:25;;;;;;;2.55;2.35;;;;;;;8.65;70.15;96530.34;5116972;28;20027;-67
2022/01/03 07:24:52;;;;;;;2.92;2.53;;;;;;;9.59;66.38;96519.53;5116627;28;20075;-68
2022/01/03 07:27:18;;;;;;;2.40;2.20;;;;;;;9.86;64.53;96519.47;5116780;28;20041;-68
2022/01/03 07:29:44;;;;;;;3.38;3.00;;;;;;;9.55;64.74;96521.41;5116838;28;20532;-69
2022/01/03 07:32:10;;;;;;;5.47;3.42;;;;;;;9.48;64.69;96520.75;5116735;28;20055;-65
2022/01/03 07:34:36;;;;;;;3.97;3.58;;;;;;;9.28;64.91;96528.41;5116696;28;20015;-62
2022/01/03 07:37:03;;;;;;;5.60;4.90;;;;;;;8.85;65.76;96521.03;5116916;28;20015;-64
2022/01/03 07:39:30;;;;;;;112.93;10.00;;;;;;;8.29;67.81;96520.06;5116465;28;20104;-68
2022/01/03 07:41:57;;;;;;;17.67;6.57;;;;;;;8.08;68.30;96511.97;5116468;28;20031;-64
2022/01/03 07:44:23;;;;;;;53.55;7.93;;;;;;;8.28;68.57;96516.59;5115595;28;20027;-66
2022/01/03 07:46:49;;;;;;;59.95;8.45;;;;;;;8.63;68.07;96515.63;5116452;28;20031;-63
2022/01/03 07:49:15;;;;;;;263.00;11.90;;;;;;;8.66;67.49;96513.78;5116375;28;20028;-66
2022/01/03 07:51:41;;;;;;;65.40;8.48;;;;;;;8.61;67.39;96513.06;5116355;28;20020;-68
2022/01/03 07:54:07;;;;;;;113.40;9.95;;;;;;;8.98;66.90;96511.91;5116279;28;20030;-64
2022/01/03 07:56:33;;;;;;;23.38;8.07;;;;;;;9.53;65.97;96511.91;5116343;28;20024;-70
2022/01/03 07:58:59;;;;;;;19.30;8.10;;;;;;;10.28;63.50;96515.34;5116279;28;20131;-66
2022/01/03 08:01:25;;;;;;;13.10;6.80;;;;;;;10.99;61.47;96514.41;5114910;28;20453;-66
2022/01/03 08:03:51;;;;;;;26.67;7.22;;;;;;;11.69;59.59;96492.38;5116111;28;20099;-65
2022/01/03 08:06:20;;;;;;;43.53;6.60;;;;;;;12.97;55.55;96483.13;5116252;28;20019;-63
2022/01/03 08:08:46;;;;;;;7.10;5.70;;;;;;;14.28;52.86;96482.69;5116050;28;20028;-68
2022/01/03 08:11:11;;;;;;;5.40;4.90;;;;;;;15.70;48.58;96473.03;5116076;28;20012;-67
2022/01/03 08:13:37;;;;;;;5.07;4.57;;;;;;;17.05;45.88;96477.94;5115954;28;20461;-66
2022/01/03 08:16:03;;;;;;;4.88;4.38;;;;;;;18.18;43.11;96476.63;5115844;28;20103;-64
2022/01/03 08:18:31;;;;;;;4.20;3.80;;;;;;;18.83;41.62;96475.63;5114454;28;20035;-64
2022/01/03 08:20:57;;;;;;;4.40;4.00;;;;;;;19.06;41.16;96470.47;5115731;28;20050;-65
2022/01/03 08:23:23;;;;;;;4.60;4.20;;;;;;;18.92;40.95;96463.53;5115773;28;20028;-69
2022/01/03 08:25:48;;;;;;;4.45;4.05;;;;;;;18.77;41.66;96465.47;5115450;28;20521;-64
2022/01/03 08:28:14;;;;;;;3.88;3.53;;;;;;;18.90;40.71;96460.16;5115621;28;20035;-61
2022/01/03 08:30:40;;;;;;;4.70;3.70;;;;;;;18.57;41.58;96457.16;5115531;28;20538;-65
2022/01/03 08:33:06;;;;;;;3.80;3.50;;;;;;;18.45;41.97;96456.25;5115568;28;20031;-64
2022/01/03 08:35:32;;;;;;;3.90;3.38;;;;;;;18.82;40.58;96460.72;5115429;28;20027;-68
2022/01/03 08:37:59;;;;;;;3.70;2.88;;;;;;;18.67;40.66;96455.53;5115349;28;20080;-68
2022/01/03 08:40:26;;;;;;;4.20;3.80;;;;;;;17.82;42.25;96438.50;5115349;28;20019;-68
2022/01/03 08:42:52;;;;;;;4.25;3.80;;;;;;;17.04;44.17;96449.78;5115373;27;20024;-68
2022/01/03 08:45:18;;;;;;;4.32;3.85;;;;;;;17.03;45.04;96447.25;5115260;28;20020;-69
2022/01/03 08:47:44;;;;;;;4.25;3.80;;;;;;;17.08;44.61;96439.91;5115215;28;20034;-65
2022/01/03 08:50:10;;;;;;;4.85;4.18;;;;;;;16.44;45.52;96440.47;5115199;28;20024;-67
2022/01/03 08:52:36;;;;;;;4.45;3.80;;;;;;;15.91;46.38;96439.25;5115149;28;20077;-70
2022/01/03 08:55:03;;;;;;;4.20;3.80;;;;;;;15.68;48.09;96433.56;5115136;28;20023;-61
2022/01/03 08:57:29;;;;;;;4.45;3.75;;;;;;;15.24;50.14;96417.72;5114998;28;20031;-67
2022/01/03 08:59:54;;;;;;;4.43;4.03;;;;;;;14.60;50.88;96417.81;5114896;28;20065;-70
2022/01/03 09:02:20;;;;;;;7.43;4.60;;;;;;;14.23;51.28;96411.03;5114902;28;20028;-68
2022/01/03 09:04:46;;;;;;;4.80;4.28;;;;;;;13.99;51.96;96415.84;5114905;28;20095;-65
2022/01/03 09:07:12;;;;;;;6.55;4.28;;;;;;;13.62;52.78;96411.63;5114935;28;20027;-66
2022/01/03 09:09:38;;;;;;;6.07;4.57;;;;;;;13.48;54.00;96417.56;5114844;28;20058;-67
2022/01/03 09:12:06;;;;;;;4.45;4.03;;;;;;;13.38;55.27;96419.81;5114848;28;20043;-65
2022/01/03 09:14:33;;;;;;;6.38;4.25;;;;;;;13.42;56.82;96415.22;5114749;28;20031;-65
2022/01/03 09:17:00;;;;;;;4.97;4.47;;;;;;;13.18;56.92;96409.47;5114679;28;20020;-70
2022/01/03 09:19:26;;;;;;;4.70;4.30;;;;;;;13.02;55.89;96395.34;5114574;28;20024;-66
2022/01/03 09:21:59;;;;;;;9.38;4.57;;;;;;;12.76;57.07;96397.47;5114761;28;20034;-68
2022/01/03 09:24:43;;;;;;;5.47;4.78;;;;;;;12.57;57.94;96389.66;5114399;28;20023;-65
2022/01/03 09:29:56;;;;;;;5.72;5.00;;;;;;;12.55;58.94;96378.38;5114770;28;20495;-65
2022/01/03 09:32:22;;;;;;;5.38;4.30;;;;;;;12.69;58.41;96387.34;5114348;28;20107;-66
2022/01/03 09:34:50;;;;;;;4.50;4.10;;;;;;;12.82;57.42;96382.38;5114407;28;20062;-62
2022/01/03 09:37:20;;;;;;;4.80;4.15;;;;;;;12.88;58.74;96384.66;5114394;28;20544;-63
2022/01/03 09:39:48;;;;;;;5.75;4.70;;;;;;;12.92;57.72;96373.09;5114156;28;20024;-68
2022/01/03 09:42:28;;;;;;;9.25;5.00;;;;;;;12.81;60.81;96357.03;5114282;28;20023;-66
2022/01/03 09:44:54;;;;;;;7.07;4.53;;;;;;;12.89;60.52;96360.97;5114281;28;20385;-67
2022/01/03 09:47:21;;;;;;;4.30;3.85;;;;;;;12.95;57.60;96357.19;5114067;28;20024;-64
2022/01/03 09:49:48;;;;;;;4.25;3.70;;;;;;;13.04;57.00;96353.25;5114263;28;20016;-65
2022/01/03 09:52:16;;;;;;;6.03;3.67;;;;;;;13.06;57.97;96335.63;5114086;28;20040;-63
2022/01/03 09:54:45;;;;;;;4.20;3.80;;;;;;;12.92;58.37;96335.50;5113923;28;20027;-63
2022/01/03 09:57:14;;;;;;;5.30;3.70;;;;;;;13.01;57.89;96343.75;5114005;28;20028;-67
2022/01/03 09:59:41;;;;;;;5.07;4.40;;;;;;;13.06;57.34;96337.44;5113957;28;20035;-68
2022/01/03 10:02:07;;;;;;;5.45;4.25;;;;;;;13.22;57.05;96337.47;5114010;28;20054;-67
2022/01/03 10:04:33;;;;;;;5.82;4.60;;;;;;;13.43;57.47;96324.13;5113949;28;20055;-65
2022/01/03 10:06:59;;;;;;;4.72;4.22;;;;;;;13.39;57.31;96328.69;5113676;28;20027;-68
2022/01/03 10:09:26;;;;;;;4.95;4.15;;;;;;;13.47;58.67;96331.78;5113431;28;20032;-65
2022/01/03 10:11:52;;;;;;;10.10;4.78;;;;;;;13.40;57.72;96327.78;5113813;28;20072;-69
2022/01/03 10:14:18;;;;;;;5.18;4.28;;;;;;;13.36;57.95;96334.09;5113764;28;20020;-66
2022/01/03 10:16:46;;;;;;;5.15;4.20;;;;;;;13.39;56.96;96321.69;5113781;28;20153;-65
2022/01/03 10:19:18;;;;;;;4.95;4.15;;;;;;;13.48;57.13;96322.97;5113566;28;20027;-67
2022/01/03 10:21:48;;;;;;;4.15;3.75;;;;;;;13.57;57.38;96316.41;5113633;28;20586;-68
2022/01/03 10:24:16;;;;;;;4.00;3.60;;;;;;;13.67;56.82;96305.41;5113474;28;20031;-62
2022/01/03 10:26:50;;;;;;;4.22;3.83;;;;;;;13.63;57.39;96302.06;5112309;28;20078;-63
2022/01/03 10:29:21;;;;;;;4.72;3.97;;;;;;;13.74;56.63;96294.47;5113670;27;20046;-67
2022/01/03 10:31:51;;;;;;;;;;;;;;;13.87;56.26;96289.38;5114063;28;20023;-65
2022/01/03 10:34:19;;;;;;;4.43;3.53;;;;;;;13.94;54.84;96286.41;5113628;28;19907;-64
2022/01/03 10:36:47;;;;;;;4.45;3.88;;;;;;;14.06;55.00;96284.88;5113487;28;20362;-65
2022/01/03 10:39:14;;;;;;;3.72;3.20;;;;;;;14.25;54.13;96268.91;5113391;28;20051;-67
2022/01/03 10:41:40;;;;;;;3.42;3.00;;;;;;;14.45;51.81;96273.00;5113458;28;20549;-63
2022/01/03 10:44:07;;;;;;;4.93;3.53;;;;;;;14.53;50.04;96273.41;5113338;28;20032;-69
2022/01/03 10:46:36;;;;;;;3.05;2.70;;;;;;;14.73;50.04;96270.53;5113335;28;20055;-65
2022/01/03 10:49:13;;;;;;;2.90;2.70;;;;;;;14.86;49.17;96282.06;5113405;28;20077;-67
2022/01/03 10:51:40;;;;;;;3.38;2.90;;;;;;;14.95;49.99;96278.03;5113410;28;20028;-66
2022/01/03 10:54:10;;;;;;;4.07;2.95;;;;;;;15.00;50.01;96270.72;5113270;28;20465;-67
2022/01/03 10:56:44;;;;;;;3.55;3.25;;;;;;;15.13;50.09;96264.69;5113291;28;20046;-63
2022/01/03 10:59:18;;;;;;;3.17;2.60;;;;;;;15.22;49.85;96265.91;5113288;28;20055;-68
2022/01/03 11:01:46;;;;;;;3.10;2.78;;;;;;;15.29;50.19;96254.91;5113360;28;20513;-67
2022/01/03 11:04:32;;;;;;;3.45;2.50;;;;;;;15.35;49.34;96250.22;5113280;28;20047;-66
2022/01/03 11:10:43;;;;;;;2.72;2.50;;;;;;;15.33;49.09;96250.31;5111978;28;20528;-68
2022/01/03 11:13:19;;;;;;;4.25;3.22;;;;;;;15.36;50.20;96230.81;5113422;28;20042;-67
2022/01/03 11:15:57;;;;;;;3.55;2.92;;;;;;;15.29;50.44;96233.84;5113113;28;20023;-68
2022/01/03 11:18:26;;;;;;;5.93;4.65;;;;;;;15.37;50.44;96236.00;5113230;28;20039;-66
2022/01/03 11:21:26;;;;;;;3.65;3.33;;;;;;;15.41;50.28;96226.94;5115611;28;20024;-69
2022/01/03 11:24:08;;;;;;;7.13;5.78;;;;;;;15.28;50.38;96226.03;5116663;28;20035;-67
2022/01/03 11:26:46;;;;;;;4.95;3.88;;;;;;;15.28;50.13;96221.59;5116691;28;20466;-64
2022/01/03 11:29:13;;;;;;;4.97;3.05;;;;;;;15.39;50.28;96220.91;5116881;28;20067;-66
2022/01/03 11:31:40;;;;;;;6.18;3.50;;;;;;;15.48;49.57;96214.25;5116784;28;20085;-65
2022/01/03 11:34:08;;;;;;;4.25;3.08;;;;;;;15.56;49.82;96205.84;5116631;28;20077;-67
2022/01/03 11:36:35;;;;;;;6.28;4.40;;;;;;;15.53;49.41;96200.75;5116732;28;20385;-61
2022/01/03 11:39:08;;;;;;;8.10;5.13;;;;;;;15.46;48.93;96191.53;5116614;28;20071;-66
2022/01/03 11:41:36;;;;;;;5.72;4.13;;;;;;;15.45;48.24;96198.63;5116634;28;20063;-64
2022/01/03 11:44:03;;;;;;;3.65;3.28;;;;;;;15.51;48.22;96194.75;5115273;28;20073;-65
2022/01/03 11:46:29;;;;;;;4.70;2.95;;;;;;;15.47;47.27;96193.25;5116553;28;20147;-65